createdAt,value
2022-11-03T00:01:37.512Z,1.73
2022-11-03T00:04:06.761Z,1.35
2022-11-03T00:06:35.569Z,1.50
2022-11-03T00:09:06.834Z,1.80
2022-11-03T00:11:35.693Z,1.40
2022-11-03T00:14:05.895Z,1.60
2022-11-03T00:16:34.364Z,1.50
2022-11-03T00:19:02.715Z,1.95
2022-11-03T00:21:31.059Z,1.75
2022-11-03T00:23:59.383Z,1.30
2022-11-03T00:26:29.084Z,1.80
2022-11-03T00:29:02.598Z,1.63
2022-11-03T00:31:33.871Z,1.70
2022-11-03T00:34:03.205Z,1.75
2022-11-03T00:36:33.599Z,1.50
2022-11-03T00:39:01.878Z,1.70
2022-11-03T00:41:30.090Z,1.80
2022-11-03T00:43:58.416Z,1.40
2022-11-03T00:46:27.438Z,1.73
2022-11-03T00:48:57.042Z,1.75
2022-11-03T00:51:27.101Z,2.33
2022-11-03T00:53:57.373Z,1.55
2022-11-03T00:56:26.784Z,1.50
2022-11-03T00:58:56.215Z,1.63
2022-11-03T01:01:26.227Z,1.85
2022-11-03T01:04:15.734Z,1.40
2022-11-03T01:06:51.628Z,1.60
2022-11-03T01:09:20.917Z,1.67
2022-11-03T01:11:56.894Z,1.50
2022-11-03T01:14:26.083Z,1.63
2022-11-03T01:16:54.218Z,1.70
2022-11-03T01:19:23.877Z,1.70
2022-11-03T01:21:52.397Z,1.33
2022-11-03T01:24:21.036Z,1.70
2022-11-03T01:26:49.423Z,1.70
2022-11-03T01:29:17.782Z,1.60
2022-11-03T01:31:45.968Z,1.70
2022-11-03T01:34:16.614Z,1.52
2022-11-03T01:36:46.937Z,1.50
2022-11-03T01:39:16.837Z,1.35
2022-11-03T01:41:46.660Z,1.50
2022-11-03T01:44:43.530Z,1.35
2022-11-03T01:47:27.220Z,1.83
2022-11-03T01:50:00.022Z,1.67
2022-11-03T01:52:34.137Z,1.67
2022-11-03T01:55:05.759Z,1.30
2022-11-03T01:57:39.985Z,1.55
2022-11-03T02:00:09.596Z,1.48
2022-11-03T02:02:37.956Z,1.23
2022-11-03T02:05:07.595Z,1.25
2022-11-03T02:07:41.301Z,1.35
2022-11-03T02:10:10.844Z,1.25
2022-11-03T02:12:39.416Z,1.38
2022-11-03T02:15:10.176Z,1.58
2022-11-03T02:17:40.306Z,1.37
2022-11-03T02:20:13.662Z,1.60
2022-11-03T02:23:12.876Z,1.50
2022-11-03T02:25:47.456Z,1.50
2022-11-03T02:28:18.726Z,1.80
2022-11-03T02:30:51.646Z,1.48
2022-11-03T02:33:31.166Z,1.50
2022-11-03T02:36:06.395Z,1.50
2022-11-03T02:38:39.801Z,1.73
2022-11-03T02:41:10.417Z,1.60
2022-11-03T02:43:40.061Z,1.75
2022-11-03T02:46:08.976Z,1.70
2022-11-03T02:48:37.447Z,1.50
2022-11-03T02:51:06.083Z,1.52
2022-11-03T02:53:37.894Z,1.65
2022-11-03T02:56:12.380Z,1.65
2022-11-03T02:58:47.172Z,1.83
2022-11-03T03:01:20.589Z,2.10
2022-11-03T03:03:51.716Z,2.05
2022-11-03T03:06:24.951Z,1.58
2022-11-03T03:08:57.229Z,1.60
2022-11-03T03:11:38.806Z,1.77
2022-11-03T03:14:11.415Z,1.75
2022-11-03T03:16:46.725Z,1.60
2022-11-03T03:19:23.768Z,1.30
2022-11-03T03:21:55.737Z,1.80
2022-11-03T03:24:32.339Z,1.75
2022-11-03T03:27:05.155Z,1.63
2022-11-03T03:29:39.287Z,1.55
2022-11-03T03:32:10.985Z,1.77
2022-11-03T03:37:10.179Z,1.60
2022-11-03T03:39:41.394Z,1.67
2022-11-03T03:42:14.139Z,1.40
2022-11-03T03:44:44.439Z,1.58
2022-11-03T03:47:17.451Z,1.42
2022-11-03T03:49:45.614Z,1.50
2022-11-03T03:52:14.052Z,1.48
2022-11-03T03:54:42.223Z,1.38
2022-11-03T03:57:16.226Z,1.60
2022-11-03T03:59:44.523Z,1.40
2022-11-03T04:02:13.256Z,1.45
2022-11-03T04:04:41.637Z,1.77
2022-11-03T04:07:28.232Z,1.60
2022-11-03T04:09:56.416Z,1.73
2022-11-03T04:12:43.377Z,1.58
2022-11-03T04:15:31.403Z,1.58
2022-11-03T04:18:17.099Z,1.27
2022-11-03T04:21:02.480Z,1.50
2022-11-03T04:23:30.808Z,1.83
2022-11-03T04:26:00.132Z,1.50
2022-11-03T04:28:30.506Z,1.55
2022-11-03T04:30:59.729Z,1.70
2022-11-03T04:33:30.185Z,1.80
2022-11-03T04:36:00.479Z,1.65
2022-11-03T04:38:30.523Z,1.50
2022-11-03T04:40:59.826Z,1.50
2022-11-03T04:43:35.924Z,1.58
2022-11-03T04:46:04.744Z,1.50
2022-11-03T04:48:34.893Z,1.42
2022-11-03T04:51:12.182Z,1.50
2022-11-03T04:53:45.063Z,1.40
2022-11-03T04:56:18.773Z,1.70
2022-11-03T04:58:48.786Z,1.40
2022-11-03T05:01:24.235Z,1.35
2022-11-03T05:03:55.192Z,1.40
2022-11-03T05:06:25.177Z,1.50
2022-11-03T05:08:56.874Z,1.58
2022-11-03T05:14:01.712Z,1.80
2022-11-03T05:16:30.690Z,1.60
2022-11-03T05:18:59.195Z,1.30
2022-11-03T05:21:28.789Z,1.67
2022-11-03T05:24:03.948Z,1.73
2022-11-03T05:26:35.126Z,1.73
2022-11-03T05:29:12.002Z,1.63
2022-11-03T05:31:43.099Z,1.55
2022-11-03T05:34:29.444Z,1.58
2022-11-03T05:36:59.624Z,1.48
2022-11-03T05:39:31.423Z,1.58
2022-11-03T05:44:36.971Z,1.40
2022-11-03T05:47:09.977Z,1.27
2022-11-03T05:49:38.166Z,1.80
2022-11-03T05:52:13.845Z,1.58
2022-11-03T05:54:42.073Z,1.38
2022-11-03T05:57:12.881Z,1.50
2022-11-03T05:59:44.480Z,2.13
2022-11-03T06:02:29.686Z,2.17
2022-11-03T06:04:59.343Z,2.20
2022-11-03T06:07:31.136Z,1.98
2022-11-03T06:12:29.161Z,2.00
2022-11-03T06:14:58.715Z,2.08
2022-11-03T06:17:28.880Z,1.48
2022-11-03T06:19:59.905Z,1.50
2022-11-03T06:22:30.318Z,1.73
2022-11-03T06:25:02.957Z,1.88
2022-11-03T06:27:35.408Z,1.40
2022-11-03T06:30:20.860Z,1.73
2022-11-03T06:32:49.080Z,1.58
2022-11-03T06:35:17.964Z,1.60
2022-11-03T06:37:47.054Z,1.58
2022-11-03T06:40:46.035Z,1.70
2022-11-03T06:43:24.831Z,1.27
2022-11-03T06:45:57.501Z,1.75
2022-11-03T06:48:28.444Z,1.77
2022-11-03T06:50:57.851Z,1.67
2022-11-03T06:53:31.154Z,1.75
2022-11-03T06:56:00.099Z,1.60
2022-11-03T06:58:31.887Z,1.90
2022-11-03T07:03:35.314Z,1.67
2022-11-03T07:06:07.063Z,1.67
2022-11-03T07:11:12.296Z,1.60
2022-11-03T07:13:40.527Z,1.92
2022-11-03T07:16:18.893Z,1.98
2022-11-03T07:18:48.734Z,2.28
2022-11-03T07:21:30.141Z,2.25
2022-11-03T07:23:59.476Z,2.38
2022-11-03T07:26:28.159Z,2.17
2022-11-03T07:28:56.865Z,1.85
2022-11-03T07:31:27.218Z,2.00
2022-11-03T07:33:59.375Z,1.92
2022-11-03T07:36:29.557Z,2.13
2022-11-03T07:38:58.404Z,2.05
2022-11-03T07:41:33.992Z,1.95
2022-11-03T07:44:03.548Z,2.25
2022-11-03T07:46:33.152Z,2.60
2022-11-03T07:49:02.905Z,2.20
2022-11-03T07:51:33.324Z,2.67
2022-11-03T07:54:10.582Z,2.60
2022-11-03T07:56:43.442Z,2.28
2022-11-03T07:59:17.494Z,2.90
2022-11-03T08:01:50.501Z,3.17
2022-11-03T08:04:21.292Z,3.95
2022-11-03T08:06:49.783Z,4.22
2022-11-03T08:09:18.021Z,4.72
2022-11-03T08:11:46.955Z,5.03
2022-11-03T08:14:15.219Z,5.07
2022-11-03T08:16:43.505Z,5.13
2022-11-03T08:19:13.053Z,4.97
2022-11-03T08:21:41.258Z,5.00
2022-11-03T08:24:09.470Z,5.20
2022-11-03T08:26:37.601Z,4.65
2022-11-03T08:29:05.840Z,5.50
2022-11-03T08:31:34.038Z,5.45
2022-11-03T08:34:02.204Z,5.00
2022-11-03T08:36:32.141Z,5.85
2022-11-03T08:39:00.295Z,5.93
2022-11-03T08:41:28.471Z,5.90
2022-11-03T08:43:56.635Z,5.38
2022-11-03T08:46:24.869Z,5.30
2022-11-03T08:48:53.636Z,5.32
2022-11-03T08:51:21.801Z,5.18
2022-11-03T08:53:53.997Z,5.25
2022-11-03T08:56:22.917Z,5.07
2022-11-03T08:58:51.219Z,5.32
2022-11-03T09:01:19.472Z,5.40
2022-11-03T09:03:47.771Z,5.30
2022-11-03T09:06:16.058Z,5.20
2022-11-03T09:11:33.953Z,5.40
2022-11-03T09:14:02.120Z,5.75
2022-11-03T09:16:30.497Z,5.20
2022-11-03T09:18:58.729Z,4.95
2022-11-03T09:21:26.864Z,5.00
2022-11-03T09:23:55.210Z,4.97
2022-11-03T09:26:23.482Z,5.03
2022-11-03T09:28:53.053Z,4.57
2022-11-03T09:31:21.373Z,4.70
2022-11-03T09:33:49.511Z,4.63
2022-11-03T09:36:17.660Z,4.80
2022-11-03T09:38:45.860Z,5.00
2022-11-03T09:41:26.358Z,4.55
2022-11-03T09:43:58.699Z,5.20
2022-11-03T09:46:29.465Z,5.60
2022-11-03T09:48:58.084Z,5.00
2022-11-03T09:51:28.245Z,5.28
2022-11-03T09:53:58.791Z,5.45
2022-11-03T09:56:28.041Z,5.68
2022-11-03T09:58:57.682Z,5.53
2022-11-03T10:01:26.138Z,5.95
2022-11-03T10:03:58.406Z,5.28
2022-11-03T10:06:26.561Z,5.10
2022-11-03T10:08:54.857Z,5.10
2022-11-03T10:11:23.058Z,5.45
2022-11-03T10:13:55.107Z,5.40
2022-11-03T10:16:26.993Z,4.82
2022-11-03T10:18:55.304Z,5.57
2022-11-03T10:21:28.418Z,5.45
2022-11-03T10:23:56.646Z,5.18
2022-11-03T10:26:25.009Z,4.93
2022-11-03T10:29:00.764Z,5.03
2022-11-03T10:31:37.655Z,4.93
2022-11-03T10:34:07.075Z,5.60
2022-11-03T10:36:36.327Z,5.07
2022-11-03T10:39:30.481Z,5.55
2022-11-03T10:42:00.066Z,5.28
2022-11-03T10:44:29.813Z,5.65
2022-11-03T10:47:00.773Z,5.60
2022-11-03T10:49:30.667Z,6.35
2022-11-03T10:52:14.928Z,6.10
2022-11-03T10:54:43.089Z,6.07
2022-11-03T10:57:11.355Z,6.40
2022-11-03T10:59:40.619Z,6.65
2022-11-03T11:02:19.395Z,6.95
2022-11-03T11:04:49.979Z,6.82
2022-11-03T11:07:23.403Z,6.10
2022-11-03T11:09:51.856Z,6.43
2022-11-03T11:12:22.565Z,6.88
2022-11-03T11:14:56.719Z,7.07
2022-11-03T11:17:47.605Z,7.22
2022-11-03T11:20:31.210Z,6.72
2022-11-03T11:23:44.576Z,6.70
2022-11-03T11:26:18.833Z,6.55
2022-11-03T11:28:47.979Z,7.30
2022-11-03T11:31:31.006Z,6.80
2022-11-03T11:34:36.881Z,7.60
2022-11-03T11:37:37.108Z,7.50
2022-11-03T11:40:14.074Z,6.10
2022-11-03T11:43:16.852Z,7.47
2022-11-03T11:46:33.450Z,7.30
2022-11-03T11:49:18.268Z,5.78
2022-11-03T11:51:46.739Z,6.93
2022-11-03T11:54:20.354Z,6.30
2022-11-03T11:56:51.072Z,7.03
2022-11-03T11:59:25.158Z,7.07
2022-11-03T12:01:56.443Z,6.68
2022-11-03T12:04:27.717Z,7.35
2022-11-03T12:06:57.551Z,6.55
2022-11-03T12:09:28.756Z,6.57
2022-11-03T12:12:00.724Z,6.60
2022-11-03T12:14:38.503Z,6.22
2022-11-03T12:17:35.659Z,6.85
2022-11-03T12:20:36.972Z,6.35
2022-11-03T12:23:05.207Z,6.57
2022-11-03T12:25:37.336Z,6.45
2022-11-03T12:28:06.005Z,6.20
2022-11-03T12:30:39.422Z,6.75
2022-11-03T12:33:08.568Z,6.32
2022-11-03T12:35:37.036Z,6.03
2022-11-03T12:38:05.309Z,6.18
2022-11-03T12:40:33.449Z,6.43
2022-11-03T12:43:02.991Z,6.53
2022-11-03T12:45:31.152Z,6.05
2022-11-03T12:47:59.358Z,6.03
2022-11-03T12:50:27.529Z,6.70
2022-11-03T12:52:55.647Z,5.95
2022-11-03T12:55:24.035Z,6.57
2022-11-03T12:57:52.185Z,5.97
2022-11-03T13:00:21.868Z,6.45
2022-11-03T13:02:50.114Z,6.03
2022-11-03T13:05:18.414Z,6.57
2022-11-03T13:07:46.581Z,7.03
2022-11-03T13:10:14.792Z,7.03
2022-11-03T13:12:44.553Z,6.40
2022-11-03T13:15:15.852Z,6.50
2022-11-03T13:18:12.135Z,5.97
2022-11-03T13:20:33.876Z,5.88
2022-11-03T13:23:02.028Z,6.97
2022-11-03T13:25:30.515Z,6.53
2022-11-03T13:27:59.721Z,6.80
2022-11-03T13:30:28.912Z,6.82
2022-11-03T13:32:58.813Z,7.00
2022-11-03T13:35:27.002Z,5.95
2022-11-03T13:37:55.168Z,6.90
2022-11-03T13:43:11.978Z,7.38
2022-11-03T13:45:40.308Z,6.95
2022-11-03T13:49:04.106Z,7.10
2022-11-03T13:51:00.129Z,7.03
2022-11-03T13:56:21.184Z,8.52
2022-11-03T14:01:39.182Z,7.38
2022-11-03T14:06:58.820Z,8.02
2022-11-03T14:09:27.048Z,6.97
2022-11-03T14:12:12.371Z,7.50
2022-11-03T14:14:40.549Z,7.30
2022-11-03T14:17:08.696Z,8.18
2022-11-03T14:19:44.836Z,5.82
2022-11-03T14:22:15.672Z,7.30
2022-11-03T14:24:44.666Z,7.30
2022-11-03T14:27:13.162Z,7.05
2022-11-03T14:29:41.292Z,4.50
2022-11-03T14:32:09.438Z,5.80
2022-11-03T14:34:39.481Z,4.90
2022-11-03T14:37:08.954Z,5.25
2022-11-03T14:39:37.699Z,4.70
2022-11-03T14:42:05.275Z,5.75
2022-11-03T14:44:34.363Z,4.90
2022-11-03T14:47:03.563Z,5.70
2022-11-03T14:49:32.827Z,6.70
2022-11-03T14:52:03.357Z,5.45
2022-11-03T14:54:32.620Z,7.13
2022-11-03T14:57:01.175Z,5.88
2022-11-03T14:59:29.693Z,8.52
2022-11-03T15:01:59.201Z,7.68
2022-11-03T15:04:27.909Z,6.97
2022-11-03T15:06:56.079Z,6.50
2022-11-03T15:09:25.620Z,8.50
2022-11-03T15:11:53.807Z,8.02
2022-11-03T15:14:21.994Z,8.52
2022-11-03T15:16:50.177Z,7.97
2022-11-03T15:19:18.344Z,8.60
2022-11-03T15:21:46.495Z,6.47
2022-11-03T15:27:04.172Z,8.95
2022-11-03T15:29:32.340Z,8.65
2022-11-03T15:32:00.600Z,9.50
2022-11-03T15:34:29.777Z,9.10
2022-11-03T15:36:57.921Z,8.07
2022-11-03T15:39:26.107Z,7.82
2022-11-03T15:41:54.277Z,7.53
2022-11-03T15:44:23.824Z,7.78
2022-11-03T15:46:52.013Z,6.53
2022-11-03T15:49:20.158Z,6.45
2022-11-03T15:51:48.335Z,7.05
2022-11-03T15:54:16.496Z,7.18
2022-11-03T15:56:44.721Z,6.95
2022-11-03T15:59:12.895Z,7.32
2022-11-03T16:01:42.660Z,7.15
2022-11-03T16:04:11.049Z,6.70
2022-11-03T16:07:07.473Z,5.57
2022-11-03T16:09:27.395Z,6.13
2022-11-03T16:11:55.501Z,6.43
2022-11-03T16:14:23.658Z,5.78
2022-11-03T16:16:53.228Z,7.05
2022-11-03T16:19:21.365Z,6.82
2022-11-03T16:21:49.560Z,6.78
2022-11-03T16:24:17.704Z,7.20
2022-11-03T16:26:45.850Z,7.03
2022-11-03T16:29:14.007Z,6.35
2022-11-03T16:31:42.160Z,8.45
2022-11-03T16:34:11.740Z,8.65
2022-11-03T16:36:39.895Z,7.47
2022-11-03T16:39:08.204Z,9.10
2022-11-03T16:41:36.375Z,8.80
2022-11-03T16:44:04.865Z,7.68
2022-11-03T16:46:33.104Z,8.63
2022-11-03T16:49:01.316Z,7.47
2022-11-03T16:51:31.087Z,8.30
2022-11-03T16:53:59.777Z,8.32
2022-11-03T16:56:28.074Z,8.00
2022-11-03T16:58:56.295Z,9.27
2022-11-03T17:01:24.652Z,9.45
2022-11-03T17:03:54.029Z,9.43
2022-11-03T17:06:22.310Z,9.43
2022-11-03T17:08:53.564Z,10.73
2022-11-03T17:14:06.378Z,9.40
2022-11-03T17:16:34.647Z,9.00
2022-11-03T17:19:02.888Z,8.07
2022-11-03T17:21:31.918Z,9.68
2022-11-03T17:24:01.934Z,10.85
2022-11-03T17:26:42.932Z,9.95
2022-11-03T17:29:16.938Z,9.57
2022-11-03T17:31:45.276Z,9.35
2022-11-03T17:34:13.697Z,10.00
2022-11-03T17:36:42.317Z,9.10
2022-11-03T17:39:17.025Z,10.65
2022-11-03T17:41:45.317Z,9.82
2022-11-03T17:44:14.665Z,9.45
2022-11-03T17:46:42.823Z,8.82
2022-11-03T17:49:11.009Z,9.55
2022-11-03T17:51:43.290Z,9.23
2022-11-03T17:54:18.515Z,9.20
2022-11-03T17:56:48.205Z,8.93
2022-11-03T17:59:17.494Z,9.88
2022-11-03T18:01:46.076Z,10.45
2022-11-03T18:06:43.088Z,10.27
2022-11-03T18:09:12.690Z,10.90
2022-11-03T18:12:00.126Z,11.13
2022-11-03T18:14:29.784Z,10.48
2022-11-03T18:16:59.192Z,10.98
2022-11-03T18:19:27.570Z,10.63
2022-11-03T18:21:55.751Z,9.77
2022-11-03T18:24:26.866Z,9.95
2022-11-03T18:26:55.032Z,10.43
2022-11-03T18:29:23.233Z,10.57
2022-11-03T18:31:51.596Z,10.43
2022-11-03T18:34:23.074Z,10.43
2022-11-03T18:36:52.806Z,10.65
2022-11-03T18:39:26.733Z,10.23
2022-11-03T18:41:55.541Z,10.55
2022-11-03T18:44:28.278Z,10.85
2022-11-03T18:46:57.596Z,10.43
2022-11-03T18:49:27.471Z,10.98
2022-11-03T18:52:04.066Z,9.88
2022-11-03T18:54:35.636Z,10.60
2022-11-03T18:57:04.456Z,9.88
2022-11-03T18:59:37.052Z,9.70
2022-11-03T19:02:16.229Z,10.57
2022-11-03T19:04:45.201Z,9.60
2022-11-03T19:07:15.114Z,10.32
2022-11-03T19:09:45.625Z,10.27
2022-11-03T19:12:16.166Z,10.10
2022-11-03T19:14:46.451Z,10.52
2022-11-03T19:17:25.021Z,10.90
2022-11-03T19:19:54.244Z,10.00
2022-11-03T19:22:23.889Z,10.25
2022-11-03T19:24:53.497Z,10.57
2022-11-03T19:27:26.418Z,10.07
2022-11-03T19:29:56.609Z,10.15
2022-11-03T19:32:28.357Z,10.13
2022-11-03T19:35:00.141Z,10.40
2022-11-03T19:37:34.919Z,10.35
2022-11-03T19:40:08.926Z,9.43
2022-11-03T19:42:37.038Z,9.82
2022-11-03T19:45:07.534Z,9.43
2022-11-03T19:47:47.788Z,9.13
2022-11-03T19:50:22.886Z,10.00
2022-11-03T19:52:51.129Z,9.27
2022-11-03T19:55:21.393Z,9.98
2022-11-03T19:57:49.589Z,8.98
2022-11-03T20:00:20.005Z,9.27
2022-11-03T20:02:48.509Z,9.52
2022-11-03T20:05:17.017Z,12.48
2022-11-03T20:07:45.325Z,14.60
2022-11-03T20:10:19.064Z,14.57
2022-11-03T20:12:48.763Z,16.30
2022-11-03T20:15:19.225Z,15.00
2022-11-03T20:17:48.342Z,12.80
2022-11-03T20:20:18.024Z,12.13
2022-11-03T20:22:50.671Z,11.52
2022-11-03T20:25:22.057Z,11.50
2022-11-03T20:27:52.608Z,12.07
2022-11-03T20:30:22.276Z,12.18
2022-11-03T20:32:51.284Z,12.10
2022-11-03T20:35:24.113Z,12.82
2022-11-03T20:37:56.064Z,13.02
2022-11-03T20:42:57.817Z,11.55
2022-11-03T20:45:26.515Z,11.43
2022-11-03T20:47:54.713Z,11.90
2022-11-03T20:50:23.654Z,11.55
2022-11-03T20:52:52.190Z,10.80
2022-11-03T20:55:22.935Z,11.27
2022-11-03T20:57:52.643Z,11.30
2022-11-03T21:00:25.168Z,11.10
2022-11-03T21:02:54.304Z,11.75
2022-11-03T21:05:24.715Z,11.38
2022-11-03T21:07:53.276Z,11.52
2022-11-03T21:10:22.348Z,11.50
2022-11-03T21:12:50.973Z,11.52
2022-11-03T21:15:52.392Z,12.88
2022-11-03T21:18:46.833Z,11.70
2022-11-03T21:21:20.727Z,11.13
2022-11-03T21:23:49.283Z,11.50
2022-11-03T21:26:17.489Z,11.90
2022-11-03T21:28:45.664Z,10.35
2022-11-03T21:31:15.541Z,10.25
2022-11-03T21:33:43.745Z,10.75
2022-11-03T21:36:12.096Z,10.20
2022-11-03T21:38:40.934Z,10.88
2022-11-03T21:41:27.142Z,10.80
2022-11-03T21:44:12.601Z,10.07
2022-11-03T21:46:42.974Z,10.05
2022-11-03T21:49:25.775Z,10.00
2022-11-03T21:51:54.044Z,10.15
2022-11-03T21:54:22.384Z,10.48
2022-11-03T21:56:50.533Z,9.52
2022-11-03T21:59:18.791Z,10.15
2022-11-03T22:01:49.460Z,10.68
2022-11-03T22:04:17.951Z,9.40
2022-11-03T22:06:46.186Z,9.48
2022-11-03T22:09:14.776Z,9.05
2022-11-03T22:11:42.999Z,7.88
2022-11-03T22:14:12.799Z,7.97
2022-11-03T22:16:40.935Z,7.95
2022-11-03T22:19:30.560Z,7.75
2022-11-03T22:22:31.400Z,4.80
2022-11-03T22:25:17.258Z,4.10
2022-11-03T22:27:46.149Z,2.00
2022-11-03T22:30:31.878Z,2.00
2022-11-03T22:33:00.102Z,1.80
2022-11-03T22:35:47.202Z,1.40
2022-11-03T22:38:16.906Z,1.00
2022-11-03T22:41:05.892Z,1.10
2022-11-03T22:43:51.347Z,0.90
2022-11-03T22:46:20.529Z,0.50
2022-11-03T22:48:48.709Z,0.50
2022-11-03T22:51:18.280Z,0.38
2022-11-03T22:54:03.905Z,0.40
2022-11-03T22:56:32.186Z,0.20
2022-11-03T22:59:00.407Z,0.57
2022-11-03T23:01:29.500Z,0.50
2022-11-03T23:03:58.192Z,0.20
2022-11-03T23:06:29.597Z,0.30
2022-11-03T23:08:58.080Z,0.20
2022-11-03T23:11:29.273Z,0.20
2022-11-03T23:13:58.924Z,0.30
2022-11-03T23:16:28.849Z,0.13
2022-11-03T23:19:26.512Z,0.20
2022-11-03T23:21:56.232Z,0.20
2022-11-03T23:24:45.319Z,0.10
2022-11-03T23:27:14.978Z,0.10
2022-11-03T23:29:43.326Z,0.08
2022-11-03T23:32:11.654Z,0.20
2022-11-03T23:34:41.001Z,0.20
2022-11-03T23:37:10.664Z,0.20
2022-11-03T23:39:38.915Z,0.30
2022-11-03T23:42:07.655Z,0.08
2022-11-03T23:44:49.769Z,0.10
2022-11-03T23:47:35.525Z,0.20
2022-11-03T23:50:03.702Z,0.00
2022-11-03T23:52:33.276Z,0.10
2022-11-03T23:55:01.495Z,0.00
2022-11-03T23:57:46.880Z,0.10
